sensor_id;sensor_type;location;lat;lon;timestamp;P1;durP1;ratioP1;P2;durP2;ratioP2
16837;SDS011;19510;54.486;9.046;2023-04-21T06:41:53;7.78;;;2.83;;
16837;SDS011;19510;54.486;9.046;2023-04-21T06:44:19;9.05;;;3.35;;
16837;SDS011;19510;54.486;9.046;2023-04-21T06:46:45;8.37;;;3.03;;
16837;SDS011;19510;54.486;9.046;2023-04-21T06:49:17;4.80;;;3.25;;
16837;SDS011;19510;54.486;9.046;2023-04-21T06:51:43;15.38;;;3.17;;
16837;SDS011;19510;54.486;9.046;2023-04-21T06:54:08;6.60;;;2.92;;
16837;SDS011;19510;54.486;9.046;2023-04-21T06:56:34;6.90;;;2.60;;
16837;SDS011;19510;54.486;9.046;2023-04-21T06:59:00;6.53;;;2.95;;
16837;SDS011;19510;54.486;9.046;2023-04-21T07:01:26;5.72;;;3.00;;
16837;SDS011;19510;54.486;9.046;2023-04-21T07:03:51;8.57;;;3.50;;
16837;SDS011;19510;54.486;9.046;2023-04-21T07:06:17;6.80;;;3.08;;
16837;SDS011;19510;54.486;9.046;2023-04-21T07:08:43;15.40;;;7.55;;
16837;SDS011;19510;54.486;9.046;2023-04-21T07:11:08;6.78;;;3.13;;
16837;SDS011;19510;54.486;9.046;2023-04-21T07:13:34;7.03;;;3.08;;
16837;SDS011;19510;54.486;9.046;2023-04-21T07:16:00;5.88;;;2.97;;
16837;SDS011;19510;54.486;9.046;2023-04-21T07:18:25;9.43;;;2.88;;
16837;SDS011;19510;54.486;9.046;2023-04-21T07:20:51;10.00;;;3.22;;
16837;SDS011;19510;54.486;9.046;2023-04-21T07:23:17;7.00;;;3.03;;
16837;SDS011;19510;54.486;9.046;2023-04-21T07:25:43;12.07;;;2.80;;
16837;SDS011;19510;54.486;9.046;2023-04-21T07:28:09;5.68;;;3.20;;
16837;SDS011;19510;54.486;9.046;2023-04-21T07:30:35;4.00;;;2.70;;
16837;SDS011;19510;54.486;9.046;2023-04-21T07:33:01;9.40;;;2.97;;
16837;SDS011;19510;54.486;9.046;2023-04-21T07:35:27;6.55;;;3.03;;
16837;SDS011;19510;54.486;9.046;2023-04-21T07:37:53;8.27;;;4.22;;
16837;SDS011;19510;54.486;9.046;2023-04-21T07:40:18;11.80;;;3.92;;
16837;SDS011;19510;54.486;9.046;2023-04-21T07:42:44;8.07;;;3.13;;
16837;SDS011;19510;54.486;9.046;2023-04-21T07:45:10;9.02;;;3.67;;
16837;SDS011;19510;54.486;9.046;2023-04-21T07:47:36;7.35;;;3.30;;
16837;SDS011;19510;54.486;9.046;2023-04-21T07:50:03;7.65;;;3.13;;
16837;SDS011;19510;54.486;9.046;2023-04-21T07:52:29;10.80;;;3.22;;
16837;SDS011;19510;54.486;9.046;2023-04-21T07:54:55;12.30;;;3.25;;
16837;SDS011;19510;54.486;9.046;2023-04-21T07:57:23;5.70;;;3.38;;
16837;SDS011;19510;54.486;9.046;2023-04-21T07:59:49;8.48;;;3.53;;
16837;SDS011;19510;54.486;9.046;2023-04-21T08:02:15;6.95;;;3.50;;
16837;SDS011;19510;54.486;9.046;2023-04-21T08:04:41;6.43;;;2.92;;
16837;SDS011;19510;54.486;9.046;2023-04-21T08:07:06;12.50;;;4.63;;
16837;SDS011;19510;54.486;9.046;2023-04-21T08:09:33;7.85;;;3.67;;
16837;SDS011;19510;54.486;9.046;2023-04-21T08:11:59;5.28;;;3.60;;
16837;SDS011;19510;54.486;9.046;2023-04-21T08:14:26;7.82;;;3.42;;
16837;SDS011;19510;54.486;9.046;2023-04-21T08:16:52;8.13;;;3.03;;
16837;SDS011;19510;54.486;9.046;2023-04-21T08:19:18;7.22;;;3.45;;
16837;SDS011;19510;54.486;9.046;2023-04-21T08:21:44;6.68;;;3.42;;
16837;SDS011;19510;54.486;9.046;2023-04-21T08:24:11;13.10;;;3.65;;
16837;SDS011;19510;54.486;9.046;2023-04-21T08:26:37;6.43;;;3.70;;
16837;SDS011;19510;54.486;9.046;2023-04-21T08:29:04;7.28;;;3.28;;
16837;SDS011;19510;54.486;9.046;2023-04-21T08:31:31;6.65;;;3.53;;
16837;SDS011;19510;54.486;9.046;2023-04-21T08:33:57;9.13;;;3.60;;
16837;SDS011;19510;54.486;9.046;2023-04-21T08:36:25;6.45;;;3.80;;
16837;SDS011;19510;54.486;9.046;2023-04-21T08:38:51;6.70;;;3.53;;
16837;SDS011;19510;54.486;9.046;2023-04-21T08:41:16;6.03;;;3.97;;
16837;SDS011;19510;54.486;9.046;2023-04-21T08:43:43;6.97;;;3.88;;
16837;SDS011;19510;54.486;9.046;2023-04-21T08:46:08;12.93;;;4.25;;
16837;SDS011;19510;54.486;9.046;2023-04-21T08:48:34;9.38;;;3.88;;
16837;SDS011;19510;54.486;9.046;2023-04-21T08:51:01;7.15;;;3.45;;
16837;SDS011;19510;54.486;9.046;2023-04-21T08:53:27;9.30;;;3.75;;
16837;SDS011;19510;54.486;9.046;2023-04-21T08:55:55;13.60;;;4.72;;
16837;SDS011;19510;54.486;9.046;2023-04-21T08:58:23;7.03;;;3.70;;
16837;SDS011;19510;54.486;9.046;2023-04-21T09:00:49;10.93;;;3.78;;
16837;SDS011;19510;54.486;9.046;2023-04-21T09:03:21;10.45;;;4.22;;
16837;SDS011;19510;54.486;9.046;2023-04-21T09:08:23;8.13;;;3.70;;
16837;SDS011;19510;54.486;9.046;2023-04-21T09:10:51;9.68;;;4.30;;
16837;SDS011;19510;54.486;9.046;2023-04-21T09:13:17;17.17;;;5.90;;
16837;SDS011;19510;54.486;9.046;2023-04-21T09:15:44;11.18;;;5.82;;
16837;SDS011;19510;54.486;9.046;2023-04-21T09:18:17;10.68;;;5.15;;
16837;SDS011;19510;54.486;9.046;2023-04-21T09:20:44;12.98;;;5.03;;
16837;SDS011;19510;54.486;9.046;2023-04-21T09:23:11;9.32;;;4.70;;
16837;SDS011;19510;54.486;9.046;2023-04-21T09:25:38;8.77;;;4.25;;
16837;SDS011;19510;54.486;9.046;2023-04-21T09:28:08;9.63;;;4.13;;
16837;SDS011;19510;54.486;9.046;2023-04-21T09:30:36;12.55;;;4.60;;
16837;SDS011;19510;54.486;9.046;2023-04-21T09:33:02;11.02;;;4.50;;
16837;SDS011;19510;54.486;9.046;2023-04-21T09:35:31;8.80;;;4.80;;
16837;SDS011;19510;54.486;9.046;2023-04-21T09:38:01;11.77;;;5.10;;
16837;SDS011;19510;54.486;9.046;2023-04-21T09:40:28;14.32;;;4.45;;
16837;SDS011;19510;54.486;9.046;2023-04-21T09:42:55;11.07;;;4.40;;
16837;SDS011;19510;54.486;9.046;2023-04-21T09:45:25;13.38;;;4.40;;
16837;SDS011;19510;54.486;9.046;2023-04-21T09:47:56;11.45;;;4.93;;
16837;SDS011;19510;54.486;9.046;2023-04-21T09:50:24;9.90;;;5.10;;
16837;SDS011;19510;54.486;9.046;2023-04-21T09:52:51;9.15;;;4.70;;
16837;SDS011;19510;54.486;9.046;2023-04-21T09:55:20;8.05;;;4.75;;
16837;SDS011;19510;54.486;9.046;2023-04-21T09:57:51;13.45;;;4.88;;
16837;SDS011;19510;54.486;9.046;2023-04-21T10:00:21;10.77;;;4.68;;
16837;SDS011;19510;54.486;9.046;2023-04-21T10:02:52;7.65;;;4.78;;
16837;SDS011;19510;54.486;9.046;2023-04-21T10:05:21;6.93;;;4.57;;
16837;SDS011;19510;54.486;9.046;2023-04-21T10:07:47;10.82;;;5.32;;
16837;SDS011;19510;54.486;9.046;2023-04-21T10:10:25;9.35;;;4.25;;
16837;SDS011;19510;54.486;9.046;2023-04-21T10:12:52;10.15;;;4.53;;
16837;SDS011;19510;54.486;9.046;2023-04-21T10:18:21;8.63;;;3.67;;
16837;SDS011;19510;54.486;9.046;2023-04-21T10:20:54;11.95;;;4.55;;
16837;SDS011;19510;54.486;9.046;2023-04-21T10:23:29;5.57;;;3.83;;
16837;SDS011;19510;54.486;9.046;2023-04-21T10:31:20;12.50;;;4.35;;
16837;SDS011;19510;54.486;9.046;2023-04-21T10:36:30;10.70;;;4.43;;
16837;SDS011;19510;54.486;9.046;2023-04-21T10:38:59;9.25;;;4.88;;
16837;SDS011;19510;54.486;9.046;2023-04-21T10:41:30;17.67;;;4.75;;
16837;SDS011;19510;54.486;9.046;2023-04-21T10:43:58;10.18;;;4.57;;
16837;SDS011;19510;54.486;9.046;2023-04-21T10:46:49;10.07;;;4.22;;
16837;SDS011;19510;54.486;9.046;2023-04-21T10:52:02;7.65;;;4.40;;
16837;SDS011;19510;54.486;9.046;2023-04-21T10:57:11;8.23;;;4.57;;
16837;SDS011;19510;54.486;9.046;2023-04-21T10:59:38;9.95;;;4.82;;
16837;SDS011;19510;54.486;9.046;2023-04-21T11:02:05;12.95;;;4.60;;
16837;SDS011;19510;54.486;9.046;2023-04-21T11:04:32;8.00;;;4.50;;
16837;SDS011;19510;54.486;9.046;2023-04-21T11:09:33;9.75;;;4.80;;
16837;SDS011;19510;54.486;9.046;2023-04-21T11:12:00;6.93;;;4.68;;
16837;SDS011;19510;54.486;9.046;2023-04-21T11:14:27;16.70;;;5.40;;
16837;SDS011;19510;54.486;9.046;2023-04-21T11:16:53;11.60;;;4.93;;
16837;SDS011;19510;54.486;9.046;2023-04-21T11:19:19;8.80;;;5.22;;
16837;SDS011;19510;54.486;9.046;2023-04-21T11:21:48;8.98;;;4.80;;
16837;SDS011;19510;54.486;9.046;2023-04-21T11:24:14;9.60;;;4.97;;
16837;SDS011;19510;54.486;9.046;2023-04-21T11:26:40;14.25;;;4.55;;
16837;SDS011;19510;54.486;9.046;2023-04-21T11:29:09;17.13;;;5.38;;
16837;SDS011;19510;54.486;9.046;2023-04-21T11:31:36;9.32;;;4.90;;
16837;SDS011;19510;54.486;9.046;2023-04-21T11:34:04;11.32;;;5.50;;
16837;SDS011;19510;54.486;9.046;2023-04-21T11:36:34;10.32;;;5.38;;
16837;SDS011;19510;54.486;9.046;2023-04-21T11:39:07;10.32;;;4.53;;
16837;SDS011;19510;54.486;9.046;2023-04-21T11:41:34;6.80;;;4.63;;
16837;SDS011;19510;54.486;9.046;2023-04-21T11:44:01;9.57;;;4.70;;
16837;SDS011;19510;54.486;9.046;2023-04-21T11:46:27;8.70;;;4.45;;
16837;SDS011;19510;54.486;9.046;2023-04-21T11:48:58;7.10;;;4.35;;
16837;SDS011;19510;54.486;9.046;2023-04-21T11:51:24;11.23;;;4.50;;
16837;SDS011;19510;54.486;9.046;2023-04-21T11:53:52;11.23;;;5.30;;
16837;SDS011;19510;54.486;9.046;2023-04-21T11:56:19;8.95;;;4.75;;
16837;SDS011;19510;54.486;9.046;2023-04-21T11:58:46;10.50;;;4.70;;
16837;SDS011;19510;54.486;9.046;2023-04-21T12:01:15;8.15;;;4.55;;
16837;SDS011;19510;54.486;9.046;2023-04-21T12:03:41;9.77;;;4.38;;
16837;SDS011;19510;54.486;9.046;2023-04-21T12:06:19;5.93;;;4.00;;
16837;SDS011;19510;54.486;9.046;2023-04-21T12:08:45;9.95;;;4.45;;
16837;SDS011;19510;54.486;9.046;2023-04-21T12:11:11;11.65;;;4.55;;
16837;SDS011;19510;54.486;9.046;2023-04-21T12:13:40;9.13;;;3.75;;
16837;SDS011;19510;54.486;9.046;2023-04-21T12:16:05;8.00;;;4.05;;
16837;SDS011;19510;54.486;9.046;2023-04-21T12:18:31;14.55;;;4.95;;
16837;SDS011;19510;54.486;9.046;2023-04-21T12:20:59;7.50;;;4.75;;
16837;SDS011;19510;54.486;9.046;2023-04-21T12:23:25;7.65;;;4.43;;
16837;SDS011;19510;54.486;9.046;2023-04-21T12:25:51;13.70;;;4.13;;
16837;SDS011;19510;54.486;9.046;2023-04-21T12:28:17;9.23;;;4.45;;
16837;SDS011;19510;54.486;9.046;2023-04-21T12:30:44;7.90;;;4.38;;
16837;SDS011;19510;54.486;9.046;2023-04-21T12:33:10;8.77;;;4.63;;
16837;SDS011;19510;54.486;9.046;2023-04-21T12:35:36;12.02;;;5.47;;
16837;SDS011;19510;54.486;9.046;2023-04-21T12:38:03;8.40;;;4.03;;
16837;SDS011;19510;54.486;9.046;2023-04-21T12:40:31;7.15;;;4.50;;
16837;SDS011;19510;54.486;9.046;2023-04-21T12:42:57;18.15;;;4.70;;
16837;SDS011;19510;54.486;9.046;2023-04-21T12:45:22;9.43;;;5.10;;
16837;SDS011;19510;54.486;9.046;2023-04-21T12:47:48;12.68;;;4.43;;
16837;SDS011;19510;54.486;9.046;2023-04-21T12:50:14;8.48;;;4.85;;
16837;SDS011;19510;54.486;9.046;2023-04-21T12:52:40;17.77;;;4.65;;
16837;SDS011;19510;54.486;9.046;2023-04-21T12:55:05;13.50;;;4.82;;
16837;SDS011;19510;54.486;9.046;2023-04-21T12:57:31;8.75;;;4.60;;
16837;SDS011;19510;54.486;9.046;2023-04-21T12:59:57;8.82;;;5.25;;
16837;SDS011;19510;54.486;9.046;2023-04-21T13:02:23;13.23;;;4.38;;
16837;SDS011;19510;54.486;9.046;2023-04-21T13:04:48;9.88;;;5.38;;
16837;SDS011;19510;54.486;9.046;2023-04-21T13:07:14;8.30;;;5.10;;
16837;SDS011;19510;54.486;9.046;2023-04-21T13:09:40;12.38;;;5.07;;
16837;SDS011;19510;54.486;9.046;2023-04-21T13:12:06;9.18;;;4.40;;
16837;SDS011;19510;54.486;9.046;2023-04-21T13:14:32;12.77;;;5.35;;
16837;SDS011;19510;54.486;9.046;2023-04-21T13:16:57;8.35;;;4.75;;
16837;SDS011;19510;54.486;9.046;2023-04-21T13:19:23;26.30;;;7.32;;
16837;SDS011;19510;54.486;9.046;2023-04-21T13:21:50;16.63;;;6.30;;
16837;SDS011;19510;54.486;9.046;2023-04-21T13:24:16;10.52;;;4.47;;
16837;SDS011;19510;54.486;9.046;2023-04-21T13:26:42;22.15;;;7.28;;
16837;SDS011;19510;54.486;9.046;2023-04-21T13:29:07;18.98;;;6.78;;
16837;SDS011;19510;54.486;9.046;2023-04-21T13:31:33;11.63;;;5.18;;
16837;SDS011;19510;54.486;9.046;2023-04-21T13:33:59;13.02;;;5.43;;
16837;SDS011;19510;54.486;9.046;2023-04-21T13:36:25;12.38;;;5.38;;
16837;SDS011;19510;54.486;9.046;2023-04-21T13:38:51;32.33;;;9.00;;
16837;SDS011;19510;54.486;9.046;2023-04-21T13:41:18;18.42;;;6.35;;
16837;SDS011;19510;54.486;9.046;2023-04-21T13:43:43;11.63;;;5.32;;
16837;SDS011;19510;54.486;9.046;2023-04-21T13:46:10;7.75;;;4.80;;
16837;SDS011;19510;54.486;9.046;2023-04-21T13:48:36;9.07;;;4.47;;
16837;SDS011;19510;54.486;9.046;2023-04-21T13:51:02;15.27;;;5.45;;
16837;SDS011;19510;54.486;9.046;2023-04-21T13:53:28;18.20;;;5.57;;
16837;SDS011;19510;54.486;9.046;2023-04-21T13:55:56;9.07;;;5.20;;
16837;SDS011;19510;54.486;9.046;2023-04-21T13:58:23;7.05;;;4.28;;
16837;SDS011;19510;54.486;9.046;2023-04-21T14:00:49;8.80;;;4.82;;
16837;SDS011;19510;54.486;9.046;2023-04-21T14:03:15;15.68;;;5.85;;
16837;SDS011;19510;54.486;9.046;2023-04-21T14:05:41;18.58;;;5.68;;
16837;SDS011;19510;54.486;9.046;2023-04-21T14:08:06;14.52;;;4.65;;
16837;SDS011;19510;54.486;9.046;2023-04-21T14:10:32;8.20;;;4.28;;
16837;SDS011;19510;54.486;9.046;2023-04-21T14:12:58;15.82;;;5.70;;
16837;SDS011;19510;54.486;9.046;2023-04-21T14:15:24;12.55;;;5.78;;
16837;SDS011;19510;54.486;9.046;2023-04-21T14:17:50;9.20;;;4.95;;
16837;SDS011;19510;54.486;9.046;2023-04-21T14:20:17;11.07;;;4.90;;
16837;SDS011;19510;54.486;9.046;2023-04-21T14:22:42;9.75;;;5.15;;
16837;SDS011;19510;54.486;9.046;2023-04-21T14:25:11;11.50;;;4.90;;
16837;SDS011;19510;54.486;9.046;2023-04-21T14:27:36;10.82;;;5.00;;
16837;SDS011;19510;54.486;9.046;2023-04-21T14:30:02;15.32;;;5.47;;
16837;SDS011;19510;54.486;9.046;2023-04-21T14:32:29;15.18;;;4.75;;
16837;SDS011;19510;54.486;9.046;2023-04-21T14:34:54;16.02;;;6.68;;
16837;SDS011;19510;54.486;9.046;2023-04-21T14:37:22;6.63;;;4.30;;
16837;SDS011;19510;54.486;9.046;2023-04-21T14:42:58;11.38;;;5.00;;
16837;SDS011;19510;54.486;9.046;2023-04-21T14:45:23;10.07;;;4.88;;
16837;SDS011;19510;54.486;9.046;2023-04-21T14:47:49;10.38;;;4.30;;
16837;SDS011;19510;54.486;9.046;2023-04-21T14:50:15;12.93;;;4.97;;
16837;SDS011;19510;54.486;9.046;2023-04-21T14:52:41;21.33;;;5.57;;
16837;SDS011;19510;54.486;9.046;2023-04-21T14:55:07;11.73;;;5.38;;
16837;SDS011;19510;54.486;9.046;2023-04-21T14:57:35;7.57;;;4.95;;
16837;SDS011;19510;54.486;9.046;2023-04-21T15:00:03;8.75;;;4.45;;
16837;SDS011;19510;54.486;9.046;2023-04-21T15:02:30;10.43;;;5.03;;
16837;SDS011;19510;54.486;9.046;2023-04-21T15:04:58;10.20;;;5.07;;
16837;SDS011;19510;54.486;9.046;2023-04-21T15:07:25;10.25;;;4.53;;
16837;SDS011;19510;54.486;9.046;2023-04-21T15:09:51;14.23;;;6.63;;
16837;SDS011;19510;54.486;9.046;2023-04-21T15:12:17;8.15;;;4.75;;
16837;SDS011;19510;54.486;9.046;2023-04-21T15:14:46;10.35;;;4.60;;
16837;SDS011;19510;54.486;9.046;2023-04-21T15:17:11;8.80;;;4.57;;
16837;SDS011;19510;54.486;9.046;2023-04-21T15:19:37;8.98;;;5.10;;
16837;SDS011;19510;54.486;9.046;2023-04-21T15:22:03;8.52;;;4.80;;
16837;SDS011;19510;54.486;9.046;2023-04-21T15:24:29;11.65;;;5.10;;
16837;SDS011;19510;54.486;9.046;2023-04-21T15:26:54;7.35;;;4.70;;
16837;SDS011;19510;54.486;9.046;2023-04-21T15:29:21;12.25;;;5.68;;
16837;SDS011;19510;54.486;9.046;2023-04-21T15:31:47;8.75;;;5.57;;
16837;SDS011;19510;54.486;9.046;2023-04-21T15:34:15;11.30;;;5.25;;
16837;SDS011;19510;54.486;9.046;2023-04-21T15:36:41;9.43;;;5.40;;
16837;SDS011;19510;54.486;9.046;2023-04-21T15:39:06;9.02;;;5.00;;
16837;SDS011;19510;54.486;9.046;2023-04-21T15:41:33;8.02;;;5.45;;
16837;SDS011;19510;54.486;9.046;2023-04-21T15:43:59;14.75;;;8.43;;
16837;SDS011;19510;54.486;9.046;2023-04-21T15:46:25;11.07;;;5.45;;
16837;SDS011;19510;54.486;9.046;2023-04-21T15:48:50;10.60;;;6.15;;
16837;SDS011;19510;54.486;9.046;2023-04-21T15:54:13;10.50;;;5.03;;
16837;SDS011;19510;54.486;9.046;2023-04-21T15:56:39;9.95;;;4.70;;
16837;SDS011;19510;54.486;9.046;2023-04-21T15:59:05;8.05;;;4.85;;
16837;SDS011;19510;54.486;9.046;2023-04-21T16:01:31;13.45;;;5.50;;
16837;SDS011;19510;54.486;9.046;2023-04-21T16:03:59;21.55;;;11.35;;
16837;SDS011;19510;54.486;9.046;2023-04-21T16:06:25;9.27;;;5.60;;
16837;SDS011;19510;54.486;9.046;2023-04-21T16:08:54;13.60;;;6.00;;
16837;SDS011;19510;54.486;9.046;2023-04-21T16:11:20;10.20;;;5.68;;
16837;SDS011;19510;54.486;9.046;2023-04-21T16:13:46;9.48;;;5.88;;
16837;SDS011;19510;54.486;9.046;2023-04-21T16:16:12;11.23;;;5.53;;
16837;SDS011;19510;54.486;9.046;2023-04-21T16:18:38;11.10;;;6.13;;
16837;SDS011;19510;54.486;9.046;2023-04-21T16:21:03;11.18;;;5.88;;
16837;SDS011;19510;54.486;9.046;2023-04-21T16:23:29;12.30;;;5.85;;
16837;SDS011;19510;54.486;9.046;2023-04-21T16:25:56;15.82;;;6.32;;
16837;SDS011;19510;54.486;9.046;2023-04-21T16:28:22;11.65;;;5.80;;
16837;SDS011;19510;54.486;9.046;2023-04-21T16:30:48;12.70;;;5.78;;
16837;SDS011;19510;54.486;9.046;2023-04-21T16:33:14;11.02;;;5.90;;
16837;SDS011;19510;54.486;9.046;2023-04-21T16:35:42;10.27;;;6.15;;
16837;SDS011;19510;54.486;9.046;2023-04-21T16:38:08;9.38;;;5.93;;
16837;SDS011;19510;54.486;9.046;2023-04-21T16:40:34;12.50;;;6.15;;
16837;SDS011;19510;54.486;9.046;2023-04-21T16:42:59;13.10;;;5.20;;
16837;SDS011;19510;54.486;9.046;2023-04-21T16:45:26;13.70;;;5.95;;
16837;SDS011;19510;54.486;9.046;2023-04-21T16:47:57;13.15;;;5.47;;
16837;SDS011;19510;54.486;9.046;2023-04-21T16:50:23;10.50;;;5.70;;
16837;SDS011;19510;54.486;9.046;2023-04-21T16:52:49;9.20;;;5.43;;
16837;SDS011;19510;54.486;9.046;2023-04-21T16:55:15;9.85;;;5.85;;
16837;SDS011;19510;54.486;9.046;2023-04-21T16:57:40;10.40;;;5.70;;
16837;SDS011;19510;54.486;9.046;2023-04-21T17:00:06;12.35;;;5.40;;
16837;SDS011;19510;54.486;9.046;2023-04-21T17:02:35;9.55;;;5.55;;
16837;SDS011;19510;54.486;9.046;2023-04-21T17:05:01;14.75;;;5.90;;
16837;SDS011;19510;54.486;9.046;2023-04-21T17:07:28;9.40;;;5.15;;
16837;SDS011;19510;54.486;9.046;2023-04-21T17:09:55;14.68;;;6.18;;
16837;SDS011;19510;54.486;9.046;2023-04-21T17:12:21;13.63;;;5.72;;
16837;SDS011;19510;54.486;9.046;2023-04-21T17:14:46;11.10;;;6.03;;
16837;SDS011;19510;54.486;9.046;2023-04-21T17:17:12;8.13;;;5.30;;
16837;SDS011;19510;54.486;9.046;2023-04-21T17:19:38;11.75;;;5.38;;
16837;SDS011;19510;54.486;9.046;2023-04-21T17:22:04;15.38;;;5.55;;
16837;SDS011;19510;54.486;9.046;2023-04-21T17:24:30;9.25;;;5.10;;
16837;SDS011;19510;54.486;9.046;2023-04-21T17:26:56;13.50;;;5.25;;
16837;SDS011;19510;54.486;9.046;2023-04-21T17:29:22;7.25;;;4.95;;
16837;SDS011;19510;54.486;9.046;2023-04-21T17:31:47;10.38;;;5.40;;
16837;SDS011;19510;54.486;9.046;2023-04-21T17:34:13;13.30;;;5.45;;
16837;SDS011;19510;54.486;9.046;2023-04-21T17:36:39;10.38;;;5.13;;
16837;SDS011;19510;54.486;9.046;2023-04-21T17:39:05;11.80;;;5.75;;
16837;SDS011;19510;54.486;9.046;2023-04-21T17:41:30;17.80;;;5.65;;
16837;SDS011;19510;54.486;9.046;2023-04-21T17:43:57;11.32;;;5.57;;
16837;SDS011;19510;54.486;9.046;2023-04-21T17:46:24;11.52;;;6.15;;
16837;SDS011;19510;54.486;9.046;2023-04-21T17:48:50;10.88;;;5.45;;
16837;SDS011;19510;54.486;9.046;2023-04-21T17:51:16;10.30;;;5.47;;
16837;SDS011;19510;54.486;9.046;2023-04-21T17:53:43;12.95;;;5.40;;
16837;SDS011;19510;54.486;9.046;2023-04-21T17:56:10;8.45;;;4.78;;
16837;SDS011;19510;54.486;9.046;2023-04-21T17:58:38;11.73;;;5.25;;
16837;SDS011;19510;54.486;9.046;2023-04-21T18:01:05;10.00;;;5.03;;
16837;SDS011;19510;54.486;9.046;2023-04-21T18:03:31;10.57;;;5.10;;
16837;SDS011;19510;54.486;9.046;2023-04-21T18:05:57;12.02;;;5.60;;
16837;SDS011;19510;54.486;9.046;2023-04-21T18:08:23;9.93;;;5.20;;
16837;SDS011;19510;54.486;9.046;2023-04-21T18:10:49;11.23;;;5.18;;
16837;SDS011;19510;54.486;9.046;2023-04-21T18:13:17;9.05;;;4.10;;
16837;SDS011;19510;54.486;9.046;2023-04-21T18:15:42;10.63;;;5.00;;
16837;SDS011;19510;54.486;9.046;2023-04-21T18:18:08;9.95;;;4.30;;
16837;SDS011;19510;54.486;9.046;2023-04-21T18:20:34;6.32;;;4.45;;
16837;SDS011;19510;54.486;9.046;2023-04-21T18:23:00;13.18;;;5.03;;
16837;SDS011;19510;54.486;9.046;2023-04-21T18:25:26;9.45;;;4.80;;
16837;SDS011;19510;54.486;9.046;2023-04-21T18:27:52;8.57;;;4.45;;
16837;SDS011;19510;54.486;9.046;2023-04-21T18:30:18;8.32;;;4.28;;
16837;SDS011;19510;54.486;9.046;2023-04-21T18:32:43;8.45;;;4.45;;
16837;SDS011;19510;54.486;9.046;2023-04-21T18:35:09;13.63;;;4.88;;
16837;SDS011;19510;54.486;9.046;2023-04-21T18:37:35;10.30;;;5.57;;
16837;SDS011;19510;54.486;9.046;2023-04-21T18:40:01;14.05;;;7.75;;
16837;SDS011;19510;54.486;9.046;2023-04-21T18:42:26;10.48;;;4.50;;
16837;SDS011;19510;54.486;9.046;2023-04-21T18:44:52;7.88;;;4.32;;
16837;SDS011;19510;54.486;9.046;2023-04-21T18:47:18;11.98;;;5.22;;
16837;SDS011;19510;54.486;9.046;2023-04-21T18:49:47;6.35;;;4.03;;
16837;SDS011;19510;54.486;9.046;2023-04-21T18:52:12;10.95;;;3.97;;
16837;SDS011;19510;54.486;9.046;2023-04-21T18:54:38;8.85;;;4.00;;
16837;SDS011;19510;54.486;9.046;2023-04-21T19:07:03;7.18;;;3.63;;
16837;SDS011;19510;54.486;9.046;2023-04-21T19:09:34;5.75;;;3.35;;
16837;SDS011;19510;54.486;9.046;2023-04-21T19:11:59;7.18;;;3.63;;
16837;SDS011;19510;54.486;9.046;2023-04-21T19:14:25;6.78;;;3.58;;
16837;SDS011;19510;54.486;9.046;2023-04-21T19:16:52;5.60;;;3.17;;
16837;SDS011;19510;54.486;9.046;2023-04-21T19:19:17;4.32;;;3.13;;
16837;SDS011;19510;54.486;9.046;2023-04-21T19:21:44;7.13;;;3.20;;
16837;SDS011;19510;54.486;9.046;2023-04-21T19:24:09;5.85;;;2.95;;
16837;SDS011;19510;54.486;9.046;2023-04-21T19:26:35;11.18;;;4.07;;
16837;SDS011;19510;54.486;9.046;2023-04-21T19:29:01;8.35;;;2.78;;
16837;SDS011;19510;54.486;9.046;2023-04-21T19:31:29;5.15;;;3.00;;
16837;SDS011;19510;54.486;9.046;2023-04-21T19:33:54;4.28;;;2.38;;
16837;SDS011;19510;54.486;9.046;2023-04-21T19:36:20;6.38;;;2.75;;
16837;SDS011;19510;54.486;9.046;2023-04-21T19:38:46;4.75;;;2.72;;
16837;SDS011;19510;54.486;9.046;2023-04-21T19:41:12;7.90;;;2.95;;
16837;SDS011;19510;54.486;9.046;2023-04-21T19:43:37;6.63;;;3.05;;
16837;SDS011;19510;54.486;9.046;2023-04-21T19:46:03;7.43;;;2.55;;
16837;SDS011;19510;54.486;9.046;2023-04-21T19:48:29;4.72;;;2.45;;
16837;SDS011;19510;54.486;9.046;2023-04-21T19:50:55;5.70;;;2.25;;
16837;SDS011;19510;54.486;9.046;2023-04-21T19:53:21;7.18;;;2.45;;
16837;SDS011;19510;54.486;9.046;2023-04-21T19:55:46;8.98;;;2.20;;
16837;SDS011;19510;54.486;9.046;2023-04-21T19:58:14;10.85;;;2.58;;
16837;SDS011;19510;54.486;9.046;2023-04-21T20:00:40;7.13;;;2.42;;
16837;SDS011;19510;54.486;9.046;2023-04-21T20:03:07;4.35;;;2.10;;
16837;SDS011;19510;54.486;9.046;2023-04-21T20:05:34;6.13;;;2.45;;
16837;SDS011;19510;54.486;9.046;2023-04-21T20:07:59;9.32;;;2.38;;
16837;SDS011;19510;54.486;9.046;2023-04-21T20:10:28;6.53;;;2.35;;
16837;SDS011;19510;54.486;9.046;2023-04-21T20:12:53;3.85;;;1.95;;
16837;SDS011;19510;54.486;9.046;2023-04-21T20:15:19;2.80;;;1.85;;
16837;SDS011;19510;54.486;9.046;2023-04-21T20:17:45;9.00;;;2.20;;
16837;SDS011;19510;54.486;9.046;2023-04-21T20:20:13;7.68;;;2.15;;
16837;SDS011;19510;54.486;9.046;2023-04-21T20:22:39;7.03;;;4.00;;
16837;SDS011;19510;54.486;9.046;2023-04-21T20:25:05;7.95;;;3.50;;
16837;SDS011;19510;54.486;9.046;2023-04-21T20:27:31;5.35;;;2.30;;
16837;SDS011;19510;54.486;9.046;2023-04-21T20:29:57;7.70;;;2.08;;
16837;SDS011;19510;54.486;9.046;2023-04-21T20:32:23;3.47;;;1.90;;
16837;SDS011;19510;54.486;9.046;2023-04-21T20:34:49;3.78;;;2.03;;
16837;SDS011;19510;54.486;9.046;2023-04-21T20:37:17;4.50;;;2.17;;
16837;SDS011;19510;54.486;9.046;2023-04-21T20:39:43;4.45;;;1.90;;
16837;SDS011;19510;54.486;9.046;2023-04-21T20:42:10;5.57;;;2.20;;
16837;SDS011;19510;54.486;9.046;2023-04-21T20:44:38;3.47;;;1.83;;
16837;SDS011;19510;54.486;9.046;2023-04-21T20:47:06;4.57;;;3.00;;
16837;SDS011;19510;54.486;9.046;2023-04-21T20:49:32;4.82;;;2.15;;
16837;SDS011;19510;54.486;9.046;2023-04-21T20:51:58;2.83;;;1.83;;
16837;SDS011;19510;54.486;9.046;2023-04-21T20:54:25;2.35;;;1.73;;
16837;SDS011;19510;54.486;9.046;2023-04-21T20:56:53;4.50;;;1.80;;
16837;SDS011;19510;54.486;9.046;2023-04-21T20:59:19;5.60;;;2.10;;
16837;SDS011;19510;54.486;9.046;2023-04-21T21:01:44;4.55;;;1.98;;
16837;SDS011;19510;54.486;9.046;2023-04-21T21:04:10;4.93;;;2.05;;
